createdAt,value
2022-10-19T10:16:20.080Z,13.85
2022-10-19T10:17:26.934Z,13.88
2022-10-19T10:18:29.510Z,13.99
2022-10-19T10:19:33.395Z,13.99
2022-10-19T10:20:35.549Z,14.20
2022-10-19T10:21:56.750Z,13.93
2022-10-19T10:28:07.272Z,14.02
2022-10-19T10:29:28.269Z,14.16
2022-10-19T10:30:35.702Z,14.05
2022-10-19T10:31:37.225Z,14.10
2022-10-19T10:32:48.036Z,14.19
2022-10-19T10:34:10.777Z,13.79
2022-10-19T11:47:12.944Z,13.62
2022-10-19T11:48:54.802Z,13.75
2022-10-19T11:51:29.249Z,13.85
2022-10-19T11:52:46.438Z,14.01
2022-10-19T11:53:53.416Z,14.14
2022-10-19T11:55:16.062Z,14.22
2022-10-19T12:35:33.517Z,14.90
2022-10-19T13:07:04.341Z,14.86
2022-10-19T13:08:10.615Z,14.73
2022-10-19T13:09:47.862Z,14.90
2022-10-19T13:34:43.340Z,14.87
2022-10-19T13:35:45.851Z,15.08
2022-10-19T13:37:01.926Z,15.19
2022-10-19T13:38:10.401Z,15.39
2022-10-19T13:39:13.955Z,15.27
2022-10-19T13:40:23.752Z,15.32
2022-10-19T13:47:12.125Z,15.22
2022-10-19T13:48:27.898Z,15.23
2022-10-19T13:49:35.013Z,15.50
2022-10-19T13:50:43.793Z,15.50
2022-10-19T13:52:00.265Z,15.51
2022-10-19T13:53:29.345Z,15.50
2022-10-19T13:55:04.268Z,15.70
2022-10-19T13:56:40.759Z,15.59
2022-10-19T13:57:50.159Z,15.69
2022-10-19T13:59:11.977Z,16.05
2022-10-19T14:00:18.307Z,15.85
2022-10-19T14:01:45.324Z,15.79
2022-10-19T14:03:01.042Z,15.97
2022-10-19T14:04:20.050Z,15.93
2022-10-19T14:05:44.918Z,15.76
2022-10-19T14:06:58.291Z,16.21
2022-10-19T14:08:34.101Z,16.12
2022-10-19T14:10:02.124Z,16.00
2022-10-19T14:11:15.227Z,16.18
2022-10-19T14:12:23.648Z,16.06
2022-10-19T14:13:24.999Z,16.41
2022-10-19T14:14:28.227Z,16.95
2022-10-19T14:15:35.172Z,16.90
2022-10-19T14:17:03.860Z,17.02
2022-10-19T14:18:27.442Z,16.45
2022-10-19T14:19:51.252Z,16.45
2022-10-19T14:21:00.790Z,17.21
2022-10-19T14:22:19.250Z,17.49
2022-10-19T14:23:25.059Z,17.38
2022-10-19T14:24:33.382Z,17.52
2022-10-19T14:25:34.844Z,17.35
2022-10-19T14:26:36.297Z,16.70
2022-10-19T14:27:38.532Z,16.84
2022-10-19T14:28:41.846Z,16.86
2022-10-19T14:29:46.883Z,16.58
2022-10-19T14:31:00.444Z,16.88
2022-10-19T14:32:03.372Z,17.08
2022-10-19T14:51:40.028Z,16.71
2022-10-19T14:52:41.990Z,17.30
2022-10-19T14:53:56.909Z,17.06
2022-10-19T14:55:00.085Z,17.13
2022-10-19T14:56:09.660Z,17.23
2022-10-19T14:57:28.321Z,17.33
2022-10-19T14:58:38.216Z,17.25
2022-10-19T15:00:03.134Z,17.96
2022-10-19T15:01:04.884Z,17.97
2022-10-19T15:02:26.811Z,17.55
2022-10-19T15:03:29.917Z,17.23
2022-10-19T15:04:38.276Z,17.49
2022-10-19T15:05:48.094Z,17.99
2022-10-19T15:06:49.696Z,18.37
2022-10-19T15:07:51.724Z,17.69
2022-10-19T15:15:35.004Z,16.73
2022-10-19T15:16:39.410Z,16.44
2022-10-19T15:18:01.307Z,16.27
2022-10-19T15:19:06.343Z,15.99
2022-10-19T15:20:23.740Z,15.66
2022-10-19T15:21:25.171Z,15.65
2022-10-19T15:22:32.766Z,15.86
2022-10-19T15:23:48.614Z,15.79
2022-10-19T15:25:08.360Z,15.88
2022-10-19T15:26:29.326Z,15.45
2022-10-19T15:27:30.644Z,15.60
2022-10-19T15:28:39.153Z,15.66
2022-10-19T15:29:59.763Z,15.85
2022-10-19T15:31:05.198Z,15.80
2022-10-19T15:32:14.466Z,15.83
2022-10-19T15:33:15.880Z,15.84
2022-10-19T15:34:30.731Z,15.77
2022-10-19T15:35:40.521Z,15.60
